Terminal Aerodrome Forecast
Issued by NWS

Home | Current Version | Previous Version | Text Only | Print | Product List | Glossary On
Versions: 1 2 3 4 5 6 7 8 9 10 11 12 13 14 15 16 17 18 19 20 21
000
FTAK31 PAJN 031553 AAB
TAFAGY
TAF AMD
PAGY 031553Z 0316/0412 20020G30KT P6SM -SHRA FEW015 BKN040 OVC060
      TEMPO 0316/0318 VRB05KT 6SM -SHRASN BR BKN015 OVC040
     FM031800 03008KT 6SM -SHRASN FEW015 BKN030 OVC040
     FM032200 03012G20KT P6SM VCSH BKN050 OVC080
      AMD LTD TO CLD VIS AND WIND=

USA.gov is the U.S. government's official web portal to all federal, state and local government web resources and services.